Time;durP1;ratioP1;P1;durP2;ratioP2;P2;SDS_P1;SDS_P2;PMS_P1;PMS_P2;Temp;Humidity;BMP_temperature;BMP_pressure;BME280_temperature;BME280_humidity;BME280_pressure;Samples;Min_cycle;Max_cycle;Signal;HPM_P1;HPM_P2
2021/04/16 00:00:51;;;;;;;3.22;1.63;;;3.80;71.90;;;;;;4984530;28;20031;-69
2021/04/16 00:03:18;;;;;;;2.75;1.70;;;3.90;71.30;;;;;;4983978;28;20023;-69
2021/04/16 00:05:45;;;;;;;2.88;1.50;;;3.90;71.80;;;;;;4969277;28;20439;-68
2021/04/16 00:08:19;;;;;;;5.60;1.52;;;3.80;71.70;;;;;;4969951;28;20077;-68
2021/04/16 00:10:49;;;;;;;3.17;1.35;;;3.80;71.70;;;;;;4984394;28;20029;-68
2021/04/16 00:13:17;;;;;;;2.63;1.27;;;3.80;71.90;;;;;;4984050;28;20027;-68
2021/04/16 00:15:45;;;;;;;2.83;1.48;;;3.80;71.90;;;;;;4984721;28;20030;-68
2021/04/16 00:18:13;;;;;;;2.67;1.40;;;3.70;71.70;;;;;;4984857;28;20046;-68
2021/04/16 00:20:39;;;;;;;2.35;1.33;;;3.70;71.60;;;;;;4983995;28;20034;-69
2021/04/16 00:23:05;;;;;;;4.10;1.48;;;3.60;72.10;;;;;;4984824;28;20034;-68
2021/04/16 00:25:32;;;;;;;2.65;1.42;;;3.50;72.20;;;;;;4984152;28;20037;-67
2021/04/16 00:27:59;;;;;;;4.82;1.80;;;3.40;72.40;;;;;;4986282;28;20053;-67
2021/04/16 00:30:36;;;;;;;3.88;1.88;;;3.20;72.60;;;;;;4985967;28;20026;-66
2021/04/16 00:33:02;;;;;;;2.58;1.35;;;3.10;73.10;;;;;;4986396;28;20052;-66
2021/04/16 00:35:28;;;;;;;2.92;1.48;;;3.10;73.40;;;;;;4986979;28;20031;-67
2021/04/16 00:37:54;;;;;;;2.33;1.58;;;3.00;73.80;;;;;;4989233;28;20033;-67
2021/04/16 00:40:25;;;;;;;6.18;1.90;;;3.00;74.30;;;;;;4985741;28;20901;-67
2021/04/16 00:42:52;;;;;;;;;;;3.00;74.10;;;;;;4986962;28;20905;-67
2021/04/16 00:45:18;;;;;;;6.35;1.58;;;2.90;74.00;;;;;;4984108;28;20397;-66
2021/04/16 00:47:44;;;;;;;3.83;1.75;;;2.90;74.30;;;;;;4985953;28;20095;-66
2021/04/16 00:50:15;;;;;;;3.38;1.60;;;2.90;74.70;;;;;;4986055;28;20138;-67
2021/04/16 00:52:40;;;;;;;2.92;1.63;;;3.00;74.40;;;;;;4988303;28;20506;-67
2021/04/16 00:55:07;;;;;;;4.03;2.10;;;3.00;74.60;;;;;;4986462;28;20128;-66
2021/04/16 00:57:33;;;;;;;2.80;1.73;;;3.00;74.70;;;;;;4991509;28;20174;-66
2021/04/16 00:59:59;;;;;;;3.78;1.77;;;3.00;74.70;;;;;;4989817;28;20027;-66
2021/04/16 01:02:25;;;;;;;4.28;1.52;;;3.00;74.30;;;;;;4991524;28;20022;-66
2021/04/16 01:04:52;;;;;;;4.00;2.00;;;3.00;74.90;;;;;;4985736;28;20037;-66
2021/04/16 01:07:19;;;;;;;4.75;1.80;;;3.10;74.50;;;;;;4992614;28;20524;-66
2021/04/16 01:09:46;;;;;;;2.42;1.67;;;3.10;74.40;;;;;;4984181;28;20023;-66
2021/04/16 01:12:13;;;;;;;2.55;1.40;;;3.10;74.60;;;;;;4988733;28;20019;-66
2021/04/16 01:14:40;;;;;;;3.15;1.65;;;3.20;74.10;;;;;;4986867;28;20397;-65
2021/04/16 01:17:11;;;;;;;8.18;1.77;;;3.20;74.40;;;;;;4992038;28;20092;-66
2021/04/16 01:19:55;;;;;;;4.68;1.85;;;3.20;74.50;;;;;;4990078;28;20073;-68
2021/04/16 01:22:29;;;;;;;3.70;1.85;;;3.20;74.60;;;;;;4997316;28;20451;-66
2021/04/16 01:24:59;;;;;;;2.97;1.50;;;3.20;74.10;;;;;;4987969;28;20773;-66
2021/04/16 01:27:27;;;;;;;4.63;1.60;;;3.10;74.20;;;;;;4992273;28;20062;-65
2021/04/16 01:29:53;;;;;;;3.13;1.85;;;3.10;74.00;;;;;;4983672;28;20035;-66
2021/04/16 01:32:30;;;;;;;4.30;1.92;;;3.10;74.60;;;;;;4990177;28;20054;-66
2021/04/16 01:34:56;;;;;;;2.95;1.60;;;3.00;74.60;;;;;;4985158;28;20041;-66
2021/04/16 01:37:25;;;;;;;2.85;1.70;;;3.00;74.70;;;;;;4989547;28;20105;-67
2021/04/16 01:39:52;;;;;;;4.45;1.75;;;2.90;74.80;;;;;;4996477;28;20030;-66
2021/04/16 01:42:18;;;;;;;3.50;1.98;;;2.80;75.10;;;;;;4996981;28;20042;-66
2021/04/16 01:44:45;;;;;;;4.40;1.67;;;2.80;75.60;;;;;;4984025;28;20423;-66
2021/04/16 01:47:13;;;;;;;4.45;1.65;;;2.70;75.60;;;;;;4987326;28;20084;-67
2021/04/16 01:49:49;;;;;;;2.67;1.50;;;2.70;75.80;;;;;;4985165;28;20422;-67
2021/04/16 01:52:33;;;;;;;2.65;1.40;;;2.60;76.20;;;;;;4987491;28;20030;-69
2021/04/16 01:54:59;;;;;;;2.97;1.60;;;2.60;76.50;;;;;;4982108;28;20176;-68
2021/04/16 01:57:31;;;;;;;4.00;1.55;;;2.60;76.70;;;;;;4984643;28;20041;-66
2021/04/16 01:59:58;;;;;;;4.30;1.98;;;2.50;76.50;;;;;;4982856;28;20037;-66
2021/04/16 02:02:30;;;;;;;4.63;1.73;;;2.50;77.00;;;;;;4983900;28;20026;-68
2021/04/16 02:04:56;;;;;;;3.65;1.65;;;2.50;77.20;;;;;;4957071;28;604944;-66
2021/04/16 02:07:22;;;;;;;4.75;1.80;;;2.60;77.10;;;;;;4987072;28;20033;-66
2021/04/16 02:09:48;;;;;;;3.03;1.80;;;2.60;77.50;;;;;;4988115;28;20227;-67
2021/04/16 02:12:16;;;;;;;3.42;1.85;;;2.60;77.20;;;;;;4987955;28;20034;-66
2021/04/16 02:14:42;;;;;;;3.85;1.77;;;2.70;77.40;;;;;;4981051;28;20054;-67
2021/04/16 02:17:14;;;;;;;4.25;1.83;;;2.70;77.40;;;;;;4987390;28;20034;-66
2021/04/16 02:19:40;;;;;;;3.45;1.70;;;2.80;77.10;;;;;;4983387;28;20112;-66
2021/04/16 02:22:14;;;;;;;3.67;1.80;;;2.80;77.30;;;;;;4987903;28;20123;-68
2021/04/16 02:24:40;;;;;;;3.45;1.70;;;2.80;76.80;;;;;;4984586;28;20037;-66
2021/04/16 02:27:06;;;;;;;4.07;1.83;;;2.80;76.90;;;;;;4986561;28;20034;-66
2021/04/16 02:29:32;;;;;;;3.33;1.50;;;2.90;76.90;;;;;;4985818;28;20513;-66
2021/04/16 02:31:58;;;;;;;2.38;1.73;;;2.80;77.20;;;;;;4987171;28;20063;-67
2021/04/16 02:34:29;;;;;;;3.88;2.00;;;2.90;77.00;;;;;;4985646;28;20022;-65
2021/04/16 02:37:01;;;;;;;3.15;1.60;;;2.90;77.10;;;;;;4985812;28;20093;-66
2021/04/16 02:39:28;;;;;;;4.05;1.75;;;2.90;76.80;;;;;;4982449;28;20038;-66
2021/04/16 02:41:54;;;;;;;4.18;1.83;;;3.00;77.50;;;;;;4986807;28;20053;-66
2021/04/16 02:44:21;;;;;;;3.67;1.65;;;3.00;77.30;;;;;;4985795;28;20111;-66
2021/04/16 02:46:47;;;;;;;3.17;1.65;;;3.00;77.50;;;;;;4987287;28;20026;-66
2021/04/16 02:49:13;;;;;;;3.28;1.67;;;3.00;77.20;;;;;;4983651;28;20045;-68
2021/04/16 02:51:38;;;;;;;4.05;2.03;;;3.10;77.50;;;;;;4987533;28;20034;-66
2021/04/16 02:54:05;;;;;;;2.60;1.45;;;3.00;77.70;;;;;;4986397;28;20074;-67
2021/04/16 02:56:31;;;;;;;2.58;1.77;;;3.00;77.60;;;;;;4989996;28;20057;-66
2021/04/16 02:58:58;;;;;;;5.22;1.88;;;3.00;77.80;;;;;;4987820;28;20124;-66
2021/04/16 03:01:24;;;;;;;4.50;1.67;;;3.00;77.90;;;;;;4986849;28;20049;-66
2021/04/16 03:03:50;;;;;;;3.05;1.85;;;3.00;77.90;;;;;;4978292;28;20491;-66
2021/04/16 03:06:16;;;;;;;3.60;1.77;;;3.00;77.90;;;;;;4987596;28;20052;-67
2021/04/16 03:08:41;;;;;;;3.95;1.80;;;3.00;78.40;;;;;;4982571;28;20031;-65
2021/04/16 03:11:09;;;;;;;4.90;2.03;;;3.00;77.90;;;;;;4984667;28;20030;-68
2021/04/16 03:13:35;;;;;;;4.45;1.90;;;3.00;77.60;;;;;;4989816;28;20074;-68
2021/04/16 03:16:01;;;;;;;4.75;1.85;;;2.90;78.10;;;;;;4990416;28;20643;-68
2021/04/16 03:18:27;;;;;;;4.30;2.08;;;2.90;78.30;;;;;;4978115;28;20019;-66
2021/04/16 03:20:53;;;;;;;4.53;2.22;;;2.80;77.90;;;;;;4985288;28;20124;-66
2021/04/16 03:23:18;;;;;;;4.28;2.03;;;2.80;78.00;;;;;;4985812;28;20026;-66
2021/04/16 03:25:44;;;;;;;3.15;1.70;;;2.80;78.60;;;;;;4987296;28;20030;-67
2021/04/16 03:28:10;;;;;;;3.90;1.98;;;2.80;78.60;;;;;;4979326;28;20054;-66
2021/04/16 03:30:36;;;;;;;4.63;1.83;;;2.70;78.60;;;;;;4989887;28;20513;-68
2021/04/16 03:33:02;;;;;;;2.92;1.70;;;2.70;78.90;;;;;;4984975;28;20114;-66
2021/04/16 03:35:28;;;;;;;5.25;2.00;;;2.60;79.30;;;;;;4986689;28;20026;-66
2021/04/16 03:37:54;;;;;;;4.40;2.00;;;2.60;80.30;;;;;;4984396;28;20062;-65
2021/04/16 03:40:30;;;;;;;5.30;2.10;;;2.60;79.60;;;;;;4984952;28;20034;-67
2021/04/16 03:42:56;;;;;;;5.15;1.98;;;2.50;79.10;;;;;;4983754;28;20034;-67
2021/04/16 03:45:22;;;;;;;4.18;2.15;;;2.50;79.40;;;;;;4986337;28;20085;-66
2021/04/16 03:47:49;;;;;;;4.50;2.20;;;2.50;79.50;;;;;;5000714;28;20382;-66
2021/04/16 03:50:18;;;;;;;4.85;2.00;;;2.50;79.40;;;;;;4986175;28;20439;-66
2021/04/16 03:52:43;;;;;;;4.32;1.90;;;2.40;79.80;;;;;;4986311;28;20034;-66
2021/04/16 03:55:10;;;;;;;7.40;2.70;;;2.30;79.50;;;;;;4985161;28;20534;-66
2021/04/16 03:57:36;;;;;;;5.78;2.53;;;2.30;79.80;;;;;;4980412;28;20058;-68
2021/04/16 04:00:05;;;;;;;6.45;2.40;;;2.30;80.00;;;;;;4983591;28;20078;-66
2021/04/16 04:02:30;;;;;;;2.78;1.75;;;2.30;79.80;;;;;;4985172;28;20042;-69
2021/04/16 04:04:56;;;;;;;6.03;2.20;;;2.30;80.10;;;;;;4983196;28;20035;-66
2021/04/16 04:07:21;;;;;;;5.72;2.17;;;2.30;80.30;;;;;;4987321;28;20057;-66
2021/04/16 04:09:47;;;;;;;5.65;2.55;;;2.30;80.30;;;;;;4979660;28;20026;-66
2021/04/16 04:12:13;;;;;;;4.95;2.30;;;2.30;80.40;;;;;;4986911;28;20027;-66
2021/04/16 04:14:39;;;;;;;5.40;2.53;;;2.30;80.40;;;;;;4981781;28;20027;-66
2021/04/16 04:17:05;;;;;;;4.13;2.13;;;2.30;80.30;;;;;;4985871;28;20457;-67
2021/04/16 04:19:33;;;;;;;5.78;2.38;;;2.30;80.20;;;;;;4981065;28;20057;-66
2021/04/16 04:22:00;;;;;;;4.25;2.45;;;2.40;79.90;;;;;;4994954;28;20034;-66
2021/04/16 04:24:26;;;;;;;5.03;2.50;;;2.40;80.40;;;;;;4983790;28;20034;-66
2021/04/16 04:26:52;;;;;;;5.63;2.35;;;2.50;79.80;;;;;;4987983;28;20030;-66
2021/04/16 04:29:20;;;;;;;6.68;2.38;;;2.50;79.50;;;;;;4983530;28;20038;-67
2021/04/16 04:31:47;;;;;;;6.00;2.58;;;2.60;79.40;;;;;;4990238;28;20450;-68
2021/04/16 04:34:27;;;;;;;6.65;2.60;;;2.60;79.10;;;;;;4982438;28;20038;-69
2021/04/16 04:36:56;;;;;;;5.38;2.70;;;2.70;78.80;;;;;;4985684;28;20113;-65
2021/04/16 04:39:25;;;;;;;3.90;2.13;;;2.70;78.80;;;;;;4988393;28;20108;-66
2021/04/16 04:41:50;;;;;;;6.18;2.45;;;2.70;78.90;;;;;;4986135;28;20065;-69
2021/04/16 04:44:16;;;;;;;4.40;2.53;;;2.80;78.50;;;;;;4988310;28;20054;-66
2021/04/16 04:46:43;;;;;;;4.88;1.92;;;2.80;78.40;;;;;;4990030;28;20034;-66
2021/04/16 04:49:08;;;;;;;8.77;2.20;;;2.80;78.40;;;;;;4985685;28;20038;-67
2021/04/16 04:51:36;;;;;;;4.38;2.20;;;2.90;78.20;;;;;;4988078;28;20023;-65
2021/04/16 04:54:03;;;;;;;5.38;2.50;;;2.90;78.40;;;;;;4988046;28;20045;-66
2021/04/16 04:56:29;;;;;;;3.58;2.13;;;3.00;78.00;;;;;;4983487;28;20404;-66
2021/04/16 04:58:54;;;;;;;5.25;1.95;;;3.00;77.90;;;;;;4980404;28;20038;-66
2021/04/16 05:01:20;;;;;;;5.85;2.10;;;3.10;78.00;;;;;;4981392;28;20084;-66
2021/04/16 05:03:46;;;;;;;6.13;2.42;;;3.10;77.00;;;;;;4978362;28;20038;-68
2021/04/16 05:06:11;;;;;;;6.20;2.05;;;3.20;78.00;;;;;;4994505;28;20116;-65
2021/04/16 05:08:37;;;;;;;5.68;2.33;;;3.30;77.00;;;;;;4985732;28;20026;-67
2021/04/16 05:11:03;;;;;;;4.32;2.35;;;3.30;76.80;;;;;;4989705;28;20027;-66
2021/04/16 05:13:29;;;;;;;3.50;2.33;;;3.30;77.40;;;;;;4972641;28;20034;-66
2021/04/16 05:15:55;;;;;;;3.33;1.95;;;3.30;76.90;;;;;;4984405;28;20092;-66
2021/04/16 05:18:21;;;;;;;4.65;2.28;;;3.40;76.60;;;;;;4981926;28;20026;-66
2021/04/16 05:20:47;;;;;;;6.60;2.53;;;3.40;77.00;;;;;;4982186;28;20046;-66
2021/04/16 05:23:12;;;;;;;6.63;2.58;;;3.50;76.90;;;;;;4985462;28;20109;-65
2021/04/16 05:25:38;;;;;;;4.93;2.58;;;3.50;76.90;;;;;;4985266;28;20078;-67
2021/04/16 05:28:04;;;;;;;3.70;2.28;;;3.60;76.60;;;;;;4997117;28;20049;-67
2021/04/16 05:30:30;;;;;;;4.45;2.25;;;3.60;76.40;;;;;;5007003;28;20026;-68
2021/04/16 05:32:55;;;;;;;5.00;2.15;;;3.60;76.50;;;;;;5005190;28;21015;-66
2021/04/16 05:35:21;;;;;;;6.50;2.40;;;3.70;76.40;;;;;;5004935;28;20049;-65
2021/04/16 05:37:48;;;;;;;7.22;2.40;;;3.70;75.70;;;;;;5003317;28;20029;-65
2021/04/16 05:40:14;;;;;;;4.22;2.33;;;3.80;76.30;;;;;;5004964;28;20030;-67
2021/04/16 05:42:40;;;;;;;5.40;2.63;;;3.90;75.30;;;;;;5004627;28;20030;-66
2021/04/16 05:45:06;;;;;;;6.88;3.35;;;4.00;76.10;;;;;;5005343;28;20026;-66
2021/04/16 05:47:33;;;;;;;6.40;2.53;;;4.00;75.80;;;;;;5009026;28;20033;-68
2021/04/16 05:49:58;;;;;;;4.85;2.30;;;4.10;74.80;;;;;;4997027;28;21120;-66
2021/04/16 05:52:25;;;;;;;5.60;2.50;;;4.10;75.70;;;;;;4985278;28;20059;-67
2021/04/16 05:54:50;;;;;;;4.53;2.50;;;4.20;75.20;;;;;;4989750;28;20045;-66
2021/04/16 05:57:16;;;;;;;6.05;2.58;;;4.20;75.00;;;;;;4988000;28;20156;-66
2021/04/16 05:59:43;;;;;;;4.97;2.35;;;4.30;75.00;;;;;;4982441;28;20030;-67
2021/04/16 06:02:36;;;;;;;9.10;2.75;;;4.30;74.00;;;;;;4985228;28;20045;-67
2021/04/16 06:05:05;;;;;;;6.00;2.25;;;4.40;74.10;;;;;;4990986;28;20041;-66
2021/04/16 06:07:32;;;;;;;4.28;2.33;;;4.60;74.80;;;;;;5007245;28;20052;-66
2021/04/16 06:09:57;;;;;;;5.30;2.65;;;4.60;74.30;;;;;;5006805;28;20038;-67
2021/04/16 06:12:24;;;;;;;4.78;2.38;;;4.70;74.20;;;;;;5005876;28;20069;-68
2021/04/16 06:14:50;;;;;;;4.82;2.40;;;4.60;73.80;;;;;;5006131;28;20367;-66
2021/04/16 06:17:17;;;;;;;5.13;2.20;;;4.50;72.60;;;;;;5006193;28;20124;-68
2021/04/16 06:19:45;;;;;;;6.05;2.17;;;4.60;74.00;;;;;;5005288;28;20041;-67
2021/04/16 06:22:11;;;;;;;4.78;2.15;;;4.70;73.30;;;;;;5006586;28;20121;-67
2021/04/16 06:24:37;;;;;;;4.28;2.40;;;4.60;73.80;;;;;;5005469;28;20120;-66
2021/04/16 06:27:04;;;;;;;6.93;2.28;;;4.80;73.30;;;;;;5006726;28;20033;-65
2021/04/16 06:29:29;;;;;;;9.48;2.78;;;5.00;74.10;;;;;;5006110;28;20018;-69
2021/04/16 06:31:55;;;;;;;4.32;1.83;;;5.10;72.70;;;;;;5006903;28;20237;-67
2021/04/16 06:34:21;;;;;;;3.97;2.13;;;5.20;72.10;;;;;;5005195;28;20064;-66
2021/04/16 06:36:48;;;;;;;3.85;2.17;;;5.40;71.20;;;;;;5005799;28;20034;-66
2021/04/16 06:39:15;;;;;;;5.18;2.38;;;5.40;71.50;;;;;;5003029;28;20096;-67
2021/04/16 06:41:41;;;;;;;5.30;2.10;;;5.50;72.00;;;;;;5005164;28;20058;-66
2021/04/16 06:44:31;;;;;;;4.85;2.03;;;5.60;71.60;;;;;;5003941;28;20057;-67
2021/04/16 06:47:15;;;;;;;4.23;2.30;;;5.90;71.70;;;;;;5006569;28;20538;-66
2021/04/16 06:49:41;;;;;;;3.25;2.17;;;5.70;71.10;;;;;;5003631;28;20018;-69
2021/04/16 06:52:27;;;;;;;9.30;2.80;;;5.70;71.50;;;;;;5007215;28;20097;-67
2021/04/16 06:55:03;;;;;;;5.68;2.30;;;5.80;71.60;;;;;;5003942;28;20034;-68
2021/04/16 06:57:40;;;;;;;6.88;2.60;;;6.10;71.10;;;;;;5003212;28;20041;-67
2021/04/16 07:00:31;;;;;;;9.23;2.40;;;6.00;70.20;;;;;;5000550;28;20131;-67
2021/04/16 07:03:07;;;;;;;7.75;2.53;;;6.30;70.30;;;;;;5001284;28;20033;-66
2021/04/16 07:06:00;;;;;;;6.40;2.78;;;6.50;70.50;;;;;;5004039;28;20044;-69
2021/04/16 07:08:50;;;;;;;5.25;2.75;;;6.70;69.40;;;;;;5002596;28;20054;-67
2021/04/16 07:11:26;;;;;;;6.30;2.78;;;7.50;68.80;;;;;;5003810;28;20057;-69
2021/04/16 07:13:52;;;;;;;7.72;2.70;;;7.20;68.30;;;;;;5000591;28;20034;-68
2021/04/16 07:16:22;;;;;;;6.28;2.97;;;7.60;68.30;;;;;;5006270;28;20431;-67
2021/04/16 07:18:54;;;;;;;5.78;2.67;;;8.00;66.20;;;;;;5002416;28;20041;-66
2021/04/16 07:21:21;;;;;;;6.60;2.90;;;8.20;64.20;;;;;;5006251;28;20117;-67
2021/04/16 07:23:51;;;;;;;5.70;2.42;;;8.00;64.80;;;;;;5005546;28;20037;-69
2021/04/16 07:26:37;;;;;;;7.80;2.63;;;8.10;64.50;;;;;;5005516;28;20065;-68
2021/04/16 07:29:04;;;;;;;8.27;2.60;;;8.20;64.70;;;;;;5002741;28;20030;-67
2021/04/16 07:31:33;;;;;;;6.28;2.97;;;7.80;64.80;;;;;;5001813;28;20467;-67
2021/04/16 07:34:00;;;;;;;9.25;3.17;;;8.30;64.10;;;;;;5004967;28;20563;-67
2021/04/16 07:36:26;;;;;;;5.15;2.63;;;8.30;65.70;;;;;;5007602;28;20382;-67
2021/04/16 07:39:13;;;;;;;8.15;2.97;;;8.60;63.70;;;;;;5005676;28;20022;-71
2021/04/16 07:41:54;;;;;;;7.10;3.10;;;8.90;64.20;;;;;;5004751;28;20453;-66
2021/04/16 07:44:28;;;;;;;6.22;2.97;;;9.00;62.30;;;;;;5006002;28;20033;-67
2021/04/16 07:46:59;;;;;;;6.57;3.17;;;9.00;60.80;;;;;;5007008;28;20033;-67
2021/04/16 07:49:31;;;;;;;6.25;3.05;;;9.30;59.30;;;;;;5004188;28;20036;-69
2021/04/16 07:52:43;;;;;;;9.23;2.85;;;9.30;60.50;;;;;;5006236;28;20037;-67
2021/04/16 07:55:20;;;;;;;6.93;2.55;;;9.90;60.80;;;;;;5001249;28;20136;-67
2021/04/16 07:57:51;;;;;;;4.88;2.70;;;10.10;57.10;;;;;;5006925;28;20114;-67
2021/04/16 08:00:23;;;;;;;;;;;10.50;54.70;;;;;;5002173;28;20534;-70
2021/04/16 08:02:53;;;;;;;6.60;2.33;;;10.50;56.00;;;;;;5007907;28;19909;-67
2021/04/16 08:05:25;;;;;;;4.05;1.80;;;10.40;54.30;;;;;;5002367;28;20044;-68
2021/04/16 08:08:12;;;;;;;4.22;1.77;;;10.70;53.20;;;;;;5010578;28;20045;-67
2021/04/16 08:10:40;;;;;;;3.30;1.88;;;10.70;50.00;;;;;;5008448;28;20601;-70
2021/04/16 08:13:09;;;;;;;5.28;2.10;;;10.60;50.90;;;;;;5008856;28;20026;-66
2021/04/16 08:15:35;;;;;;;4.45;1.73;;;10.50;50.10;;;;;;5009621;28;20036;-68
2021/04/16 08:18:22;;;;;;;8.25;1.73;;;10.80;47.20;;;;;;5009318;28;20030;-68
2021/04/16 08:21:06;;;;;;;5.78;1.92;;;11.10;47.20;;;;;;5010206;28;20029;-67
2021/04/16 08:23:43;;;;;;;5.50;1.77;;;10.80;46.90;;;;;;5008314;28;20029;-68
2021/04/16 08:26:09;;;;;;;3.65;1.30;;;11.30;46.50;;;;;;5010450;28;20034;-67
2021/04/16 08:28:50;;;;;;;5.07;1.77;;;11.50;45.30;;;;;;5008715;28;20482;-67
2021/04/16 08:31:32;;;;;;;4.85;2.00;;;11.40;45.50;;;;;;5004483;28;20129;-66
2021/04/16 08:34:08;;;;;;;5.57;1.73;;;11.50;45.60;;;;;;5007702;28;20033;-67
2021/04/16 08:36:40;;;;;;;4.47;1.60;;;11.50;45.90;;;;;;5008883;28;20048;-67
2021/04/16 08:39:26;;;;;;;6.03;1.95;;;11.60;45.30;;;;;;5008582;28;20026;-67
2021/04/16 08:42:07;;;;;;;6.00;1.50;;;11.80;44.70;;;;;;5008655;28;20121;-68
2021/04/16 08:44:42;;;;;;;3.10;1.48;;;12.10;43.90;;;;;;5002621;28;20033;-66
2021/04/16 08:47:20;;;;;;;4.90;2.00;;;11.90;45.20;;;;;;5009421;28;20046;-67
2021/04/16 08:49:46;;;;;;;5.90;1.60;;;11.80;43.60;;;;;;5007882;28;20399;-67
2021/04/16 08:52:12;;;;;;;2.72;1.77;;;11.30;44.50;;;;;;5009500;28;20394;-68
2021/04/16 08:54:39;;;;;;;3.83;1.90;;;12.00;46.10;;;;;;5005955;28;20018;-66
2021/04/16 08:57:19;;;;;;;5.13;1.40;;;12.20;43.80;;;;;;5008658;28;20515;-67
2021/04/16 08:59:58;;;;;;;4.07;1.40;;;12.10;41.60;;;;;;5003790;28;20036;-67
2021/04/16 09:02:51;;;;;;;3.08;1.40;;;12.50;44.90;;;;;;5005284;28;20068;-66
2021/04/16 09:05:49;;;;;;;2.75;1.67;;;12.30;43.40;;;;;;5006897;28;20037;-69
2021/04/16 09:08:15;;;;;;;6.47;1.52;;;12.60;43.10;;;;;;5008280;28;20030;-69
2021/04/16 09:10:45;;;;;;;5.32;1.65;;;13.00;41.90;;;;;;5007650;28;20283;-67
2021/04/16 09:13:30;;;;;;;2.80;1.60;;;13.10;42.40;;;;;;5007104;28;20028;-68
2021/04/16 09:16:18;;;;;;;3.80;1.60;;;12.90;41.30;;;;;;5009067;28;20022;-68
2021/04/16 09:18:49;;;;;;;4.22;1.20;;;13.10;40.10;;;;;;5005027;28;20054;-66
2021/04/16 09:22:04;;;;;;;4.63;1.48;;;12.90;40.10;;;;;;5008708;28;20030;-66
2021/04/16 09:24:42;;;;;;;3.20;1.33;;;12.90;41.90;;;;;;5004507;28;20077;-67
2021/04/16 09:27:15;;;;;;;2.97;1.23;;;13.20;39.10;;;;;;5007564;28;20061;-69
2021/04/16 09:29:43;;;;;;;2.78;1.20;;;13.40;38.80;;;;;;5004609;28;20026;-68
2021/04/16 09:32:34;;;;;;;3.92;1.30;;;13.70;39.80;;;;;;5007484;28;20026;-68
2021/04/16 09:35:17;;;;;;;3.70;1.10;;;13.10;37.20;;;;;;5007410;28;20466;-68
2021/04/16 09:37:45;;;;;;;3.22;0.73;;;13.30;39.50;;;;;;5005701;28;20091;-67
2021/04/16 09:40:26;;;;;;;2.60;0.80;;;13.10;34.90;;;;;;5001316;28;20030;-71
2021/04/16 09:42:53;;;;;;;2.03;1.10;;;13.10;35.50;;;;;;5004250;28;20040;-68
2021/04/16 09:45:27;;;;;;;2.75;1.20;;;13.10;34.80;;;;;;4991118;28;20561;-66
2021/04/16 09:48:14;;;;;;;2.67;1.08;;;13.10;35.10;;;;;;5005962;28;20378;-68
2021/04/16 09:50:48;;;;;;;2.30;0.90;;;12.80;36.20;;;;;;4998736;28;20044;-69
2021/04/16 09:53:27;;;;;;;1.77;0.98;;;13.30;35.10;;;;;;4995630;28;20030;-69
2021/04/16 09:55:59;;;;;;;4.38;1.20;;;13.40;35.60;;;;;;5007503;28;20026;-66
2021/04/16 09:58:30;;;;;;;2.03;0.88;;;13.30;34.70;;;;;;5005934;28;20449;-67
2021/04/16 10:00:56;;;;;;;2.40;1.25;;;13.30;35.20;;;;;;5003603;28;20029;-65
2021/04/16 10:03:34;;;;;;;1.00;0.90;;;13.60;35.00;;;;;;5006098;28;20049;-66
2021/04/16 10:06:12;;;;;;;2.75;1.00;;;13.90;37.00;;;;;;5007116;28;20040;-67
2021/04/16 10:08:39;;;;;;;3.70;0.95;;;14.30;35.50;;;;;;5007374;28;20121;-67
2021/04/16 10:11:07;;;;;;;2.85;1.10;;;13.70;35.50;;;;;;5005671;28;20057;-69
2021/04/16 10:13:35;;;;;;;2.65;1.00;;;13.60;36.30;;;;;;5002778;28;20022;-68
2021/04/16 10:16:01;;;;;;;3.13;1.20;;;13.40;36.90;;;;;;5006770;28;20038;-68
2021/04/16 10:18:35;;;;;;;4.32;0.95;;;13.10;35.70;;;;;;5001123;28;20109;-67
2021/04/16 10:21:04;;;;;;;2.92;1.02;;;13.60;35.80;;;;;;5002080;28;20049;-67
2021/04/16 10:23:41;;;;;;;4.70;0.95;;;13.60;35.30;;;;;;5005272;28;20080;-68
2021/04/16 10:44:19;;;;;;;1.58;0.80;;;13.60;35.40;;;;;;4990955;28;20069;-68
2021/04/16 12:38:54;;;;;;;6.32;0.95;;;16.70;29.90;;;;;;5006256;28;20041;-69
2021/04/16 12:41:21;;;;;;;2.28;0.98;;;17.00;30.10;;;;;;5003526;28;20164;-68
2021/04/16 12:43:48;;;;;;;1.73;0.77;;;16.90;29.30;;;;;;5002879;28;20137;-69
2021/04/16 12:46:20;;;;;;;3.90;1.00;;;17.00;30.50;;;;;;5006213;28;20030;-69
2021/04/16 12:48:46;;;;;;;2.25;0.90;;;17.40;27.30;;;;;;5001706;28;20050;-67
2021/04/16 12:51:12;;;;;;;2.33;0.65;;;17.00;28.40;;;;;;5006796;28;20125;-68
2021/04/16 12:53:39;;;;;;;4.68;0.93;;;17.20;27.90;;;;;;5005967;28;20525;-70
2021/04/16 12:56:08;;;;;;;3.65;0.57;;;16.90;27.60;;;;;;5004100;28;20112;-67
2021/04/16 12:58:37;;;;;;;1.98;0.80;;;17.30;26.90;;;;;;5005698;28;20551;-69
2021/04/16 13:01:07;;;;;;;2.35;0.90;;;17.70;27.00;;;;;;5004150;28;20030;-68
2021/04/16 13:03:40;;;;;;;1.65;0.65;;;17.30;26.80;;;;;;5003467;28;20501;-68
2021/04/16 13:06:22;;;;;;;3.03;0.80;;;17.10;26.10;;;;;;5005170;28;20049;-68
2021/04/16 13:08:48;;;;;;;3.05;0.80;;;17.00;25.90;;;;;;5006135;28;20051;-67
2021/04/16 13:11:14;;;;;;;10.32;0.80;;;16.60;27.00;;;;;;5007123;28;20029;-67
2021/04/16 13:13:39;;;;;;;3.30;0.60;;;16.20;26.60;;;;;;5004619;28;20026;-69
2021/04/16 13:16:06;;;;;;;2.95;0.70;;;16.40;27.80;;;;;;5004757;28;20029;-70
2021/04/16 13:18:35;;;;;;;2.95;0.60;;;16.00;27.40;;;;;;5002330;28;20523;-68
2021/04/16 13:21:01;;;;;;;2.97;0.70;;;15.60;28.00;;;;;;5005323;28;20037;-70
2021/04/16 13:23:27;;;;;;;1.30;0.55;;;15.40;27.80;;;;;;5003351;28;20053;-68
2021/04/16 13:25:53;;;;;;;2.40;0.88;;;15.40;28.20;;;;;;5004829;28;20111;-68
2021/04/16 13:28:19;;;;;;;2.35;0.57;;;15.40;29.40;;;;;;5006267;28;20862;-67
2021/04/16 13:30:44;;;;;;;2.92;0.80;;;16.20;29.30;;;;;;5004706;28;20034;-68
2021/04/16 13:33:17;;;;;;;3.67;0.68;;;16.10;28.30;;;;;;5004790;28;20030;-67
2021/04/16 13:35:54;;;;;;;2.63;0.85;;;16.50;29.30;;;;;;5003869;28;20038;-67
2021/04/16 13:38:27;;;;;;;3.28;0.80;;;16.00;28.90;;;;;;5003028;28;20389;-67
2021/04/16 13:40:54;;;;;;;2.58;0.90;;;16.20;27.20;;;;;;5005393;28;20058;-67
2021/04/16 13:43:21;;;;;;;3.22;0.73;;;16.20;29.60;;;;;;5004518;28;20037;-67
2021/04/16 13:45:47;;;;;;;1.77;0.70;;;16.50;28.90;;;;;;5004020;28;20045;-68
2021/04/16 13:48:14;;;;;;;3.58;0.55;;;16.30;28.10;;;;;;5002817;28;20514;-68
2021/04/16 13:50:39;;;;;;;1.60;0.80;;;16.00;28.60;;;;;;5000506;28;20034;-67
2021/04/16 13:53:06;;;;;;;18.35;0.98;;;15.50;29.00;;;;;;5003975;28;20034;-67
2021/04/16 13:55:32;;;;;;;2.85;0.80;;;15.30;28.70;;;;;;5001863;28;20022;-67
2021/04/16 13:57:58;;;;;;;4.03;0.60;;;15.60;26.50;;;;;;5004020;28;20048;-68
2021/04/16 14:00:26;;;;;;;4.20;0.80;;;16.50;27.90;;;;;;5004027;28;20026;-67
2021/04/16 14:02:56;;;;;;;2.30;0.70;;;16.50;28.10;;;;;;4989369;28;20545;-67
2021/04/16 14:05:25;;;;;;;2.78;0.75;;;17.00;26.50;;;;;;4991569;28;20504;-68
2021/04/16 14:07:53;;;;;;;1.60;0.75;;;16.70;26.20;;;;;;5004840;28;20435;-67
2021/04/16 14:10:22;;;;;;;4.75;1.20;;;16.80;27.40;;;;;;5002923;28;20116;-67
2021/04/16 14:12:47;;;;;;;1.08;0.70;;;16.80;26.60;;;;;;5005187;28;20030;-67
2021/04/16 14:15:14;;;;;;;2.55;0.80;;;16.60;26.80;;;;;;5005175;28;20455;-67
2021/04/16 14:17:44;;;;;;;3.65;0.82;;;15.60;28.90;;;;;;5004310;28;20410;-66
2021/04/16 14:20:30;;;;;;;3.22;0.90;;;16.10;28.10;;;;;;4999313;28;20040;-67
2021/04/16 14:22:58;;;;;;;2.35;0.90;;;17.00;27.20;;;;;;5004182;28;20022;-67
2021/04/16 14:25:36;;;;;;;3.38;0.73;;;17.30;28.90;;;;;;5005684;28;20040;-67
2021/04/16 14:28:04;;;;;;;2.88;1.00;;;17.20;27.90;;;;;;5004438;28;20478;-66
2021/04/16 14:30:33;;;;;;;2.55;0.75;;;17.30;26.80;;;;;;5000590;28;20410;-68
2021/04/16 14:33:02;;;;;;;5.43;1.10;;;16.20;28.70;;;;;;5000864;28;20026;-67
2021/04/16 14:35:30;;;;;;;3.03;1.17;;;16.80;28.90;;;;;;5003878;28;20112;-69
2021/04/16 14:37:56;;;;;;;4.32;1.20;;;16.80;28.90;;;;;;5004599;28;20038;-68
2021/04/16 14:40:23;;;;;;;2.92;1.15;;;16.70;27.90;;;;;;5004075;28;20068;-71
2021/04/16 14:42:49;;;;;;;2.38;0.93;;;16.30;28.90;;;;;;5002216;28;20033;-67
2021/04/16 14:45:27;;;;;;;2.50;1.00;;;16.40;29.50;;;;;;5004207;28;20034;-67
2021/04/16 14:47:56;;;;;;;3.97;1.00;;;16.10;29.60;;;;;;5003747;28;20030;-69
2021/04/16 14:50:24;;;;;;;2.95;0.90;;;15.70;30.80;;;;;;5002045;28;20033;-67
2021/04/16 14:52:50;;;;;;;2.30;1.00;;;16.40;31.10;;;;;;5003596;28;20067;-67
2021/04/16 14:55:27;;;;;;;1.83;0.93;;;16.40;29.50;;;;;;5005456;28;20498;-67
2021/04/16 14:57:55;;;;;;;3.17;0.93;;;16.50;29.60;;;;;;5002958;28;20040;-70
2021/04/16 15:00:23;;;;;;;2.45;1.02;;;16.50;29.70;;;;;;5002967;28;20049;-67
2021/04/16 15:02:48;;;;;;;1.90;1.00;;;16.60;29.30;;;;;;5001455;28;20033;-69
2021/04/16 15:05:18;;;;;;;5.63;1.50;;;17.90;29.00;;;;;;4981064;28;20041;-67
2021/04/16 15:07:53;;;;;;;5.70;1.23;;;19.10;27.20;;;;;;5001314;28;20033;-67
2021/04/16 15:10:47;;;;;;;2.58;1.10;;;18.40;27.90;;;;;;5002283;28;20293;-67
2021/04/16 15:13:22;;;;;;;3.20;1.10;;;17.90;26.90;;;;;;5002345;28;20110;-68
2021/04/16 15:15:48;;;;;;;2.58;1.10;;;18.70;27.90;;;;;;5003386;28;20048;-68
2021/04/16 15:18:18;;;;;;;2.17;1.10;;;18.50;28.20;;;;;;5002344;28;20030;-67